Time;durP1;ratioP1;P1;durP2;ratioP2;P2;SDS_P1;SDS_P2;PMS_P1;PMS_P2;Temp;Humidity;BMP_temperature;BMP_pressure;BME280_temperature;BME280_humidity;BME280_pressure;Samples;Min_cycle;Max_cycle;Signal;HPM_P1;HPM_P2
2021/08/10 00:00:45;;;;;;;3.58;1.70;;;17.10;83.30;;;;;;5050363;28;20036;-77
2021/08/10 00:03:11;;;;;;;3.42;1.55;;;17.10;83.30;;;;;;5048243;28;20068;-77
2021/08/10 00:05:36;;;;;;;3.30;1.50;;;17.00;83.30;;;;;;5049258;28;20520;-77
2021/08/10 00:08:02;;;;;;;7.32;2.20;;;17.00;83.40;;;;;;5050216;28;20111;-76
2021/08/10 00:10:28;;;;;;;4.35;2.30;;;16.90;83.60;;;;;;5049753;28;20059;-77
2021/08/10 00:12:54;;;;;;;6.28;1.70;;;16.90;84.10;;;;;;5049559;28;20068;-77
2021/08/10 00:15:20;;;;;;;4.03;1.45;;;16.90;84.10;;;;;;5049211;28;20032;-77
2021/08/10 00:17:45;;;;;;;4.15;2.13;;;16.90;84.10;;;;;;5049187;28;20029;-77
2021/08/10 00:20:11;;;;;;;2.20;1.30;;;16.80;84.00;;;;;;5048594;28;20471;-77
2021/08/10 00:22:37;;;;;;;6.40;2.10;;;16.80;84.40;;;;;;5049232;28;20507;-77
2021/08/10 00:25:03;;;;;;;3.17;1.30;;;16.80;84.50;;;;;;5048980;28;20033;-77
2021/08/10 00:27:29;;;;;;;3.15;1.55;;;16.80;84.50;;;;;;5049050;28;20040;-77
2021/08/10 00:29:54;;;;;;;4.95;1.17;;;16.70;84.20;;;;;;5050050;28;20029;-77
2021/08/10 00:32:20;;;;;;;6.95;1.70;;;16.70;84.70;;;;;;5048595;28;20033;-77
2021/08/10 00:34:46;;;;;;;8.18;1.25;;;16.70;84.40;;;;;;5048932;28;20013;-77
2021/08/10 00:37:12;;;;;;;2.78;1.88;;;16.50;84.50;;;;;;5049540;28;20100;-77
2021/08/10 00:39:37;;;;;;;3.47;1.48;;;16.50;84.70;;;;;;5049823;28;20503;-77
2021/08/10 00:42:04;;;;;;;4.22;2.15;;;16.60;84.70;;;;;;5049807;28;20029;-77
2021/08/10 00:44:30;;;;;;;2.55;1.45;;;16.50;84.60;;;;;;5047869;28;20033;-77
2021/08/10 00:46:55;;;;;;;3.72;2.08;;;16.50;84.50;;;;;;5049957;28;20051;-77
2021/08/10 00:49:21;;;;;;;5.47;1.83;;;16.50;84.50;;;;;;5049294;28;20474;-77
2021/08/10 00:51:49;;;;;;;9.07;1.77;;;16.50;85.00;;;;;;5049827;28;20021;-77
2021/08/10 00:54:15;;;;;;;4.55;2.03;;;16.40;84.90;;;;;;5047226;28;20025;-77
2021/08/10 00:56:41;;;;;;;2.78;1.98;;;16.40;84.70;;;;;;5048347;28;20021;-77
2021/08/10 00:59:07;;;;;;;5.95;1.77;;;16.40;84.70;;;;;;5049444;28;20025;-77
2021/08/10 01:01:33;;;;;;;3.65;1.20;;;16.30;84.90;;;;;;5049592;28;20024;-77
2021/08/10 01:03:58;;;;;;;2.63;1.75;;;16.30;85.50;;;;;;5047653;28;20037;-77
2021/08/10 01:06:29;;;;;;;5.03;2.22;;;16.30;85.80;;;;;;5049475;28;20032;-77
2021/08/10 01:08:59;;;;;;;4.40;1.98;;;16.30;86.10;;;;;;5049222;28;20399;-77
2021/08/10 01:11:33;;;;;;;7.80;2.15;;;16.20;86.20;;;;;;5049390;28;20471;-77
2021/08/10 01:14:14;;;;;;;5.65;2.10;;;16.20;86.00;;;;;;5046800;28;20039;-77
2021/08/10 01:16:47;;;;;;;2.53;1.35;;;16.20;86.70;;;;;;5049391;28;20025;-76
2021/08/10 01:19:26;;;;;;;3.35;1.92;;;16.20;87.00;;;;;;5049304;28;20648;-77
2021/08/10 01:21:56;;;;;;;4.15;2.20;;;16.20;87.20;;;;;;5047557;28;20028;-77
2021/08/10 01:24:22;;;;;;;4.18;1.83;;;16.20;87.20;;;;;;5048090;28;20494;-76
2021/08/10 01:26:53;;;;;;;3.67;1.70;;;16.20;86.90;;;;;;5049247;28;20529;-77
2021/08/10 01:29:25;;;;;;;9.20;4.93;;;16.10;87.10;;;;;;5051799;28;20029;-77
2021/08/10 01:31:52;;;;;;;15.18;10.70;;;16.10;87.00;;;;;;5052050;28;20088;-76
2021/08/10 01:34:29;;;;;;;18.88;11.55;;;16.00;86.90;;;;;;5051597;28;20027;-76
2021/08/10 01:36:56;;;;;;;11.50;7.85;;;16.00;86.60;;;;;;5052827;28;20494;-77
2021/08/10 01:39:24;;;;;;;18.48;11.15;;;16.00;87.00;;;;;;5052005;28;20039;-77
2021/08/10 01:41:51;;;;;;;5.18;2.88;;;16.00;87.10;;;;;;5053005;28;20021;-77
2021/08/10 01:44:17;;;;;;;8.68;3.53;;;15.90;87.40;;;;;;5050632;28;20116;-77
2021/08/10 01:46:45;;;;;;;25.05;13.68;;;15.90;87.40;;;;;;5052868;28;20100;-76
2021/08/10 01:49:12;;;;;;;8.20;4.20;;;15.80;87.70;;;;;;5052470;28;20056;-77
2021/08/10 01:51:38;;;;;;;7.57;4.88;;;15.80;87.70;;;;;;5052793;28;20100;-77
2021/08/10 01:54:04;;;;;;;7.57;3.35;;;15.80;88.10;;;;;;5051001;28;20025;-77
2021/08/10 01:56:30;;;;;;;2.90;1.98;;;15.70;88.60;;;;;;5052571;28;20035;-77
2021/08/10 01:58:58;;;;;;;9.15;5.40;;;15.70;88.30;;;;;;5051984;28;20554;-77
2021/08/10 02:01:26;;;;;;;29.27;19.45;;;15.70;88.90;;;;;;5052478;28;20047;-77
2021/08/10 02:03:52;;;;;;;9.30;5.05;;;15.70;88.50;;;;;;5051601;28;20035;-77
2021/08/10 02:06:18;;;;;;;11.77;6.80;;;15.60;88.50;;;;;;5052378;28;20032;-77
2021/08/10 02:08:44;;;;;;;3.70;2.58;;;15.60;88.40;;;;;;5052099;28;20013;-77
2021/08/10 02:11:13;;;;;;;7.70;3.08;;;15.60;88.70;;;;;;5052345;28;20035;-77
2021/08/10 02:13:38;;;;;;;14.65;8.60;;;15.60;89.70;;;;;;5051943;28;20468;-77
2021/08/10 02:16:06;;;;;;;5.18;2.50;;;15.60;89.20;;;;;;5050914;28;20039;-77
2021/08/10 02:18:31;;;;;;;3.58;2.33;;;15.50;89.70;;;;;;5052093;28;20031;-77
2021/08/10 02:20:59;;;;;;;8.27;5.43;;;15.50;89.70;;;;;;5052298;28;20112;-77
2021/08/10 02:23:25;;;;;;;4.10;1.80;;;15.50;89.70;;;;;;5050677;28;20459;-77
2021/08/10 02:25:52;;;;;;;3.80;2.70;;;15.50;90.00;;;;;;5050012;28;20033;-77
2021/08/10 02:28:19;;;;;;;3.45;2.03;;;15.50;89.60;;;;;;5050292;28;20029;-77
2021/08/10 02:30:49;;;;;;;6.43;2.50;;;15.50;89.90;;;;;;5050742;28;20029;-76
2021/08/10 02:33:17;;;;;;;4.70;2.65;;;15.60;90.00;;;;;;5050811;28;20032;-77
2021/08/10 02:35:43;;;;;;;7.00;3.47;;;15.60;89.80;;;;;;5050568;28;20029;-77
2021/08/10 02:38:13;;;;;;;4.93;2.47;;;15.60;89.60;;;;;;5051431;28;20108;-77
2021/08/10 02:40:40;;;;;;;2.45;1.63;;;15.60;89.60;;;;;;5051109;28;20020;-77
2021/08/10 02:43:08;;;;;;;3.67;1.90;;;15.60;90.10;;;;;;5050524;28;20049;-77
2021/08/10 02:45:34;;;;;;;4.47;3.00;;;15.60;90.00;;;;;;5051066;28;20029;-77
2021/08/10 02:48:01;;;;;;;5.35;2.70;;;15.70;89.50;;;;;;5051647;28;20029;-77
2021/08/10 02:50:28;;;;;;;5.43;3.92;;;15.60;89.50;;;;;;5050245;28;20033;-77
2021/08/10 02:52:54;;;;;;;3.60;2.20;;;15.70;89.50;;;;;;5050315;28;20029;-77
2021/08/10 02:55:21;;;;;;;6.63;2.88;;;15.70;89.50;;;;;;5051109;28;20036;-77
2021/08/10 02:58:24;;;;;;;3.60;1.90;;;15.70;89.40;;;;;;5051182;28;20464;-77
2021/08/10 03:00:57;;;;;;;3.50;2.30;;;15.70;89.70;;;;;;5051184;28;20026;-76
2021/08/10 03:03:27;;;;;;;3.53;1.05;;;15.70;89.40;;;;;;5049877;28;20025;-77
2021/08/10 03:05:59;;;;;;;5.18;2.97;;;15.60;89.60;;;;;;5050629;28;20510;-77
2021/08/10 03:08:30;;;;;;;4.03;1.92;;;15.70;89.30;;;;;;5050498;28;20086;-76
2021/08/10 03:10:57;;;;;;;5.43;1.80;;;15.70;89.50;;;;;;5049946;28;20025;-77
2021/08/10 03:13:25;;;;;;;6.13;2.35;;;15.80;89.60;;;;;;5049834;28;20395;-76
2021/08/10 03:15:53;;;;;;;3.97;1.23;;;15.70;89.40;;;;;;5050127;28;20029;-77
2021/08/10 03:18:25;;;;;;;2.30;1.33;;;15.80;89.40;;;;;;5050473;28;20046;-77
2021/08/10 03:20:56;;;;;;;5.18;2.97;;;15.80;89.50;;;;;;5050900;28;20096;-77
2021/08/10 03:23:23;;;;;;;3.25;2.13;;;15.80;89.30;;;;;;5049559;28;20024;-76
2021/08/10 03:25:49;;;;;;;4.53;2.03;;;15.80;89.40;;;;;;5050129;28;20519;-77
2021/08/10 03:28:16;;;;;;;2.83;1.48;;;15.80;89.40;;;;;;5049735;28;20033;-77
2021/08/10 03:30:42;;;;;;;7.18;2.13;;;15.80;89.10;;;;;;5051136;28;20111;-77
2021/08/10 03:33:08;;;;;;;7.20;1.42;;;15.80;89.10;;;;;;5048981;28;20116;-77
2021/08/10 03:35:34;;;;;;;6.05;1.75;;;15.80;89.00;;;;;;5049183;28;20029;-77
2021/08/10 03:38:00;;;;;;;3.40;1.85;;;15.80;89.10;;;;;;5049293;28;20025;-77
2021/08/10 03:40:26;;;;;;;2.90;1.88;;;15.80;88.80;;;;;;5050546;28;20439;-77
2021/08/10 03:42:53;;;;;;;6.78;1.42;;;15.80;89.20;;;;;;5048949;28;20024;-77
2021/08/10 03:45:19;;;;;;;5.63;2.58;;;15.80;88.80;;;;;;5049384;28;20039;-77
2021/08/10 03:47:46;;;;;;;3.15;1.58;;;15.90;88.70;;;;;;5050641;28;20439;-76
2021/08/10 03:50:13;;;;;;;4.55;1.60;;;15.90;88.70;;;;;;5050498;28;20064;-77
2021/08/10 03:52:39;;;;;;;3.35;1.75;;;15.80;88.80;;;;;;5050300;28;20029;-76
2021/08/10 03:55:07;;;;;;;5.70;2.05;;;15.80;88.70;;;;;;5049233;28;20027;-76
2021/08/10 03:57:35;;;;;;;6.03;1.85;;;15.80;88.60;;;;;;5049827;28;20025;-76
2021/08/10 04:00:01;;;;;;;7.50;1.60;;;15.80;88.60;;;;;;5048853;28;20064;-76
2021/08/10 04:02:27;;;;;;;4.25;1.25;;;15.80;88.80;;;;;;5050245;28;20491;-76
2021/08/10 04:04:55;;;;;;;8.02;3.38;;;15.80;89.10;;;;;;5049060;28;20094;-76
2021/08/10 04:07:21;;;;;;;4.75;2.10;;;15.80;88.80;;;;;;5049814;28;20120;-76
2021/08/10 04:09:48;;;;;;;6.53;1.75;;;15.80;88.80;;;;;;5050151;28;20028;-76
2021/08/10 04:12:14;;;;;;;8.48;1.77;;;15.80;88.70;;;;;;5048629;28;20369;-76
2021/08/10 04:14:40;;;;;;;4.95;1.77;;;15.80;88.80;;;;;;5048043;28;20604;-76
2021/08/10 04:17:07;;;;;;;7.22;2.33;;;15.80;88.90;;;;;;5068184;22;20094;-74
2021/08/10 04:19:35;;;;;;;5.95;3.08;;;15.90;89.10;;;;;;5068394;28;20096;-74
2021/08/10 04:22:02;;;;;;;4.20;2.22;;;15.90;88.90;;;;;;5069523;28;20032;-74
2021/08/10 04:24:28;;;;;;;5.35;1.50;;;15.90;88.60;;;;;;5067249;28;20511;-74
2021/08/10 04:26:54;;;;;;;4.93;1.42;;;16.00;88.90;;;;;;5069948;28;20386;-74
2021/08/10 04:29:20;;;;;;;5.15;1.75;;;16.00;88.50;;;;;;5069583;28;20098;-74
2021/08/10 04:31:46;;;;;;;5.50;2.78;;;16.10;88.30;;;;;;5069168;28;20439;-74
2021/08/10 04:34:12;;;;;;;7.63;4.45;;;16.20;88.00;;;;;;5067193;28;20157;-74
2021/08/10 04:36:37;;;;;;;4.63;2.30;;;16.30;87.90;;;;;;5069858;28;20025;-74
2021/08/10 04:39:03;;;;;;;3.75;2.38;;;16.40;87.90;;;;;;5069703;28;20032;-74
2021/08/10 04:41:29;;;;;;;5.82;3.45;;;16.40;87.50;;;;;;5069058;28;20035;-74
2021/08/10 04:43:54;;;;;;;37.13;20.13;;;16.40;87.60;;;;;;5067650;28;20036;-74
2021/08/10 04:46:22;;;;;;;28.73;17.38;;;16.30;87.50;;;;;;5069430;28;20032;-74
2021/08/10 04:48:48;;;;;;;11.88;8.10;;;16.30;87.40;;;;;;5067985;28;20040;-74
2021/08/10 04:51:13;;;;;;;6.57;3.78;;;16.30;87.70;;;;;;5069241;28;20029;-74
2021/08/10 04:53:39;;;;;;;4.40;2.05;;;16.40;87.60;;;;;;5068604;28;20028;-74
2021/08/10 04:56:06;;;;;;;10.95;5.68;;;16.50;87.60;;;;;;5067336;28;20021;-74
2021/08/10 04:58:32;;;;;;;6.18;3.63;;;16.50;87.30;;;;;;5069691;28;20017;-74
2021/08/10 05:00:57;;;;;;;11.52;7.28;;;16.60;87.20;;;;;;5069805;28;20086;-74
2021/08/10 05:03:23;;;;;;;23.25;11.95;;;16.70;87.20;;;;;;5069560;28;20032;-74
2021/08/10 05:05:48;;;;;;;15.80;10.93;;;16.80;86.60;;;;;;5071608;28;20064;-74
2021/08/10 05:08:15;;;;;;;11.48;5.80;;;16.80;86.50;;;;;;5072357;28;20067;-74
2021/08/10 05:10:42;;;;;;;24.98;14.10;;;16.80;86.30;;;;;;5073414;28;20043;-74
2021/08/10 05:13:08;;;;;;;14.52;7.82;;;16.70;86.60;;;;;;5071669;28;20024;-74
2021/08/10 05:15:33;;;;;;;7.82;3.67;;;16.70;87.10;;;;;;5071343;28;20028;-75
2021/08/10 05:17:59;;;;;;;6.15;2.80;;;16.70;87.80;;;;;;5073295;28;20450;-74
2021/08/10 05:20:24;;;;;;;4.63;1.85;;;16.60;87.40;;;;;;5072355;28;20040;-75
2021/08/10 05:22:50;;;;;;;6.15;2.90;;;16.50;87.80;;;;;;5073117;28;20024;-75
2021/08/10 05:25:15;;;;;;;7.72;2.95;;;16.40;87.90;;;;;;5070813;28;20056;-75
2021/08/10 05:27:41;;;;;;;9.25;4.05;;;16.40;88.30;;;;;;5073195;28;20033;-76
2021/08/10 05:30:07;;;;;;;5.03;2.60;;;16.40;88.10;;;;;;5072782;28;20028;-75
2021/08/10 05:32:33;;;;;;;6.32;2.97;;;16.30;88.20;;;;;;5071543;28;20037;-75
2021/08/10 05:34:58;;;;;;;8.43;3.50;;;16.40;88.50;;;;;;5062140;28;20445;-75
2021/08/10 05:37:24;;;;;;;6.57;2.03;;;16.40;88.80;;;;;;5072744;28;20025;-75
2021/08/10 05:39:49;;;;;;;3.85;1.70;;;16.50;88.90;;;;;;5072179;28;20024;-75
2021/08/10 05:42:15;;;;;;;5.78;2.17;;;16.50;89.00;;;;;;5070034;28;20020;-75
2021/08/10 05:44:41;;;;;;;5.55;2.83;;;16.60;88.80;;;;;;5071641;28;20028;-75
2021/08/10 05:47:06;;;;;;;5.28;3.45;;;16.60;88.70;;;;;;5071184;28;20391;-75
2021/08/10 05:49:33;;;;;;;14.63;2.35;;;16.70;88.40;;;;;;5071780;28;20024;-75
2021/08/10 05:51:58;;;;;;;11.20;2.40;;;16.70;88.70;;;;;;5072537;28;20039;-75
2021/08/10 05:54:24;;;;;;;5.00;1.67;;;16.70;88.20;;;;;;5069884;28;20025;-75
2021/08/10 05:56:49;;;;;;;5.18;2.22;;;16.80;88.20;;;;;;5072534;28;20567;-75
2021/08/10 05:59:15;;;;;;;3.50;1.85;;;16.80;88.30;;;;;;5071502;28;20036;-75
2021/08/10 06:01:40;;;;;;;8.38;3.20;;;16.80;88.10;;;;;;5070932;28;20047;-75
2021/08/10 06:04:06;;;;;;;2.78;1.52;;;16.90;88.20;;;;;;5069114;28;20037;-75
2021/08/10 06:06:34;;;;;;;7.40;2.75;;;16.90;87.60;;;;;;5071801;28;20387;-75
2021/08/10 06:09:01;;;;;;;5.78;2.03;;;17.00;87.70;;;;;;5072234;28;20020;-75
2021/08/10 06:11:27;;;;;;;6.22;2.15;;;17.00;87.70;;;;;;5072027;28;20060;-75
2021/08/10 06:13:52;;;;;;;6.22;2.75;;;17.00;87.50;;;;;;5070379;28;20071;-75
2021/08/10 06:16:18;;;;;;;8.15;1.95;;;17.10;87.50;;;;;;5070757;28;20429;-75
2021/08/10 06:18:43;;;;;;;3.33;1.88;;;17.10;87.50;;;;;;5072258;28;20035;-75
2021/08/10 06:21:09;;;;;;;9.65;1.70;;;17.10;87.30;;;;;;5071945;28;20104;-75
2021/08/10 06:23:35;;;;;;;6.25;2.03;;;17.10;87.30;;;;;;5070989;28;20028;-75
2021/08/10 06:26:00;;;;;;;8.27;2.83;;;17.10;87.50;;;;;;5070603;28;20112;-75
2021/08/10 06:28:26;;;;;;;7.30;1.98;;;17.20;87.60;;;;;;5070938;28;20035;-75
2021/08/10 06:30:51;;;;;;;4.78;1.98;;;17.30;87.50;;;;;;5071435;28;20024;-75
2021/08/10 06:33:17;;;;;;;5.20;2.00;;;17.40;87.20;;;;;;5071772;28;20035;-75
2021/08/10 06:35:42;;;;;;;24.73;4.82;;;17.50;87.10;;;;;;5070079;28;20116;-75
2021/08/10 06:38:08;;;;;;;11.68;3.38;;;17.60;86.90;;;;;;5071293;28;20453;-75
2021/08/10 06:40:34;;;;;;;6.93;3.15;;;17.70;86.90;;;;;;5071686;28;20438;-75
2021/08/10 06:42:59;;;;;;;11.20;3.25;;;17.70;86.50;;;;;;5071164;28;20491;-75
2021/08/10 06:45:25;;;;;;;23.17;3.20;;;17.80;86.30;;;;;;5070636;28;20409;-75
2021/08/10 06:47:52;;;;;;;13.75;2.90;;;17.80;86.00;;;;;;5061178;28;20063;-75
2021/08/10 06:50:18;;;;;;;3.88;1.92;;;17.90;85.60;;;;;;5070775;28;20403;-75
2021/08/10 06:52:44;;;;;;;7.50;1.42;;;18.00;85.20;;;;;;5069805;28;20028;-75
2021/08/10 06:55:10;;;;;;;3.38;1.85;;;18.00;84.60;;;;;;5070266;28;20058;-75
2021/08/10 06:57:38;;;;;;;5.05;1.50;;;18.00;84.40;;;;;;5071279;28;20024;-75
2021/08/10 07:00:05;;;;;;;8.50;1.70;;;18.10;84.20;;;;;;5068230;28;20364;-75
2021/08/10 07:02:30;;;;;;;4.85;1.08;;;18.10;84.10;;;;;;5070148;28;20081;-75
2021/08/10 07:04:56;;;;;;;6.75;1.63;;;18.10;83.80;;;;;;5069423;28;20024;-75
2021/08/10 07:07:21;;;;;;;4.65;1.27;;;18.10;83.70;;;;;;5070355;28;20029;-75
2021/08/10 07:09:47;;;;;;;4.97;1.17;;;18.10;83.60;;;;;;5071165;28;20099;-75
2021/08/10 07:12:12;;;;;;;9.23;1.17;;;18.00;83.60;;;;;;5069759;28;20133;-75
2021/08/10 07:14:38;;;;;;;4.53;1.40;;;18.00;83.70;;;;;;5070219;28;20609;-75
2021/08/10 07:17:03;;;;;;;1.75;1.15;;;18.00;83.50;;;;;;5070375;28;20029;-75
2021/08/10 07:19:29;;;;;;;5.03;1.00;;;18.00;83.60;;;;;;5071167;28;20085;-75
2021/08/10 07:21:54;;;;;;;6.93;2.00;;;18.00;83.60;;;;;;5068773;28;20255;-75
2021/08/10 07:24:20;;;;;;;5.53;1.55;;;18.00;83.50;;;;;;5068489;28;20024;-75
2021/08/10 07:26:46;;;;;;;2.38;1.35;;;18.00;83.40;;;;;;5070250;28;20035;-75
2021/08/10 07:29:11;;;;;;;4.82;1.77;;;18.00;83.30;;;;;;5070665;28;20035;-75
2021/08/10 07:31:36;;;;;;;8.60;2.00;;;18.00;83.20;;;;;;5070769;28;20165;-75
2021/08/10 07:34:02;;;;;;;3.88;1.35;;;18.00;82.90;;;;;;5069532;28;20029;-75
2021/08/10 07:36:27;;;;;;;7.18;1.50;;;18.10;82.80;;;;;;5070551;28;20021;-75
2021/08/10 07:38:53;;;;;;;8.73;2.03;;;18.20;82.60;;;;;;5060555;28;20045;-75
2021/08/10 07:41:18;;;;;;;6.22;1.50;;;18.20;82.40;;;;;;5070531;28;20027;-75
2021/08/10 07:43:44;;;;;;;4.30;1.30;;;18.30;82.50;;;;;;5069257;28;20297;-75
2021/08/10 07:46:10;;;;;;;2.55;1.40;;;18.30;82.40;;;;;;5067991;28;20082;-75
2021/08/10 07:48:36;;;;;;;5.00;1.25;;;18.50;82.10;;;;;;5068113;28;20024;-75
2021/08/10 07:51:02;;;;;;;7.35;1.92;;;18.70;82.20;;;;;;5070533;28;20610;-74
2021/08/10 07:53:27;;;;;;;4.28;1.55;;;18.90;81.60;;;;;;5069488;28;20123;-75
2021/08/10 07:55:53;;;;;;;7.03;1.33;;;19.20;81.20;;;;;;5069222;28;20398;-75
2021/08/10 07:58:18;;;;;;;4.85;1.75;;;19.30;80.30;;;;;;5069903;28;20570;-75
2021/08/10 08:00:44;;;;;;;7.60;2.17;;;19.40;79.50;;;;;;5070390;28;20059;-75
2021/08/10 08:03:12;;;;;;;2.70;1.58;;;19.50;79.10;;;;;;5069666;28;20036;-75
2021/08/10 08:05:39;;;;;;;4.63;1.73;;;19.50;78.60;;;;;;5069088;28;20036;-75
2021/08/10 08:08:04;;;;;;;2.72;1.73;;;19.50;78.70;;;;;;5068866;28;20032;-75
2021/08/10 08:10:30;;;;;;;8.68;1.25;;;19.60;78.80;;;;;;5070146;28;20435;-75
2021/08/10 08:12:56;;;;;;;3.80;1.58;;;19.80;78.40;;;;;;5069710;28;20044;-75
2021/08/10 08:15:22;;;;;;;7.50;1.70;;;20.00;78.50;;;;;;5067839;28;20036;-75
2021/08/10 08:17:47;;;;;;;6.28;1.60;;;20.10;77.70;;;;;;5069433;28;20032;-75
2021/08/10 08:20:14;;;;;;;4.63;1.50;;;20.30;77.20;;;;;;5069179;28;20363;-75
2021/08/10 08:22:39;;;;;;;3.47;1.55;;;20.50;77.10;;;;;;5069704;28;20084;-75
2021/08/10 08:25:05;;;;;;;6.60;3.60;;;20.80;75.50;;;;;;5068854;28;20060;-75
2021/08/10 08:27:31;;;;;;;7.65;2.40;;;20.90;74.90;;;;;;5069674;28;20031;-75
2021/08/10 08:29:57;;;;;;;2.55;1.48;;;21.00;74.90;;;;;;5068911;28;20036;-75
2021/08/10 08:32:23;;;;;;;5.40;1.00;;;21.20;74.10;;;;;;5068851;28;20028;-75
2021/08/10 08:34:48;;;;;;;7.55;1.15;;;21.40;73.30;;;;;;5068739;28;20029;-75
2021/08/10 08:37:14;;;;;;;5.22;1.45;;;21.50;72.60;;;;;;5067153;28;20028;-75
2021/08/10 08:39:40;;;;;;;3.90;1.85;;;21.60;72.30;;;;;;5069135;28;20037;-75
2021/08/10 08:42:05;;;;;;;4.03;1.10;;;21.70;71.40;;;;;;5068938;28;20037;-75
2021/08/10 08:44:34;;;;;;;5.13;1.50;;;21.70;71.20;;;;;;5065444;28;20454;-75
2021/08/10 08:47:02;;;;;;;13.27;2.17;;;21.80;71.00;;;;;;5069056;28;20028;-75
2021/08/10 08:49:30;;;;;;;3.72;1.30;;;21.80;70.90;;;;;;5076445;28;20376;-75
2021/08/10 08:51:58;;;;;;;3.47;1.23;;;21.90;69.90;;;;;;5069417;28;20035;-75
2021/08/10 08:54:24;;;;;;;8.48;1.65;;;21.90;70.10;;;;;;5067928;28;20065;-75
2021/08/10 08:56:50;;;;;;;5.65;1.33;;;21.90;69.90;;;;;;5069472;28;21705;-72
2021/08/10 08:59:17;;;;;;;2.90;1.40;;;21.90;70.30;;;;;;5067643;28;20029;-72
2021/08/10 09:01:43;;;;;;;4.05;1.35;;;21.90;69.60;;;;;;5068986;28;20427;-72
2021/08/10 09:04:09;;;;;;;3.42;1.73;;;21.90;69.40;;;;;;5067976;28;20044;-72
2021/08/10 09:06:35;;;;;;;3.38;1.52;;;22.00;69.30;;;;;;5069309;28;20045;-72
2021/08/10 09:09:21;;;;;;;6.68;4.22;;;22.00;69.00;;;;;;5068273;28;20032;-72
2021/08/10 09:11:52;;;;;;;7.47;3.60;;;22.20;69.20;;;;;;5067878;28;20021;-72
2021/08/10 09:14:18;;;;;;;4.55;2.72;;;22.30;67.80;;;;;;5068310;28;20395;-72
2021/08/10 09:17:10;;;;;;;4.97;2.05;;;22.30;68.00;;;;;;5068586;28;20029;-72
2021/08/10 09:19:48;;;;;;;4.07;2.20;;;22.30;67.40;;;;;;5068572;28;20028;-72
2021/08/10 09:22:32;;;;;;;4.00;2.42;;;22.40;68.20;;;;;;5068620;28;20027;-72
2021/08/10 09:25:05;;;;;;;4.80;1.65;;;22.50;67.80;;;;;;5067177;28;20467;-72
2021/08/10 09:27:39;;;;;;;4.72;2.45;;;22.60;66.90;;;;;;5067864;28;20047;-72
2021/08/10 09:30:11;;;;;;;3.75;2.10;;;22.50;67.00;;;;;;5068235;28;20048;-72
2021/08/10 09:32:52;;;;;;;5.43;2.47;;;22.60;64.70;;;;;;5068609;28;20067;-74
2021/08/10 09:35:19;;;;;;;5.75;2.40;;;22.50;65.00;;;;;;5067900;28;20054;-75
2021/08/10 09:38:07;;;;;;;3.35;1.77;;;22.50;65.30;;;;;;5068425;28;20024;-75
2021/08/10 09:40:44;;;;;;;4.53;2.58;;;22.60;64.90;;;;;;5068311;28;20025;-75
2021/08/10 09:43:28;;;;;;;7.82;3.10;;;22.60;64.60;;;;;;5068387;28;20120;-75
2021/08/10 09:46:05;;;;;;;4.25;2.15;;;22.70;64.80;;;;;;5066290;28;20056;-75
2021/08/10 09:48:33;;;;;;;5.50;2.35;;;22.70;62.80;;;;;;5068250;28;20518;-75
2021/08/10 09:51:16;;;;;;;4.35;2.58;;;22.50;63.70;;;;;;5072109;28;20479;-75
2021/08/10 09:53:43;;;;;;;6.18;3.40;;;22.50;64.30;;;;;;5070863;28;20032;-75
2021/08/10 09:56:09;;;;;;;5.05;2.95;;;22.60;63.20;;;;;;5070741;28;20035;-74
2021/08/10 09:58:58;;;;;;;3.53;2.70;;;22.70;62.50;;;;;;5072463;28;20028;-75
2021/08/10 10:01:35;;;;;;;7.38;3.97;;;22.70;62.40;;;;;;5071927;28;20033;-75
2021/08/10 10:04:30;;;;;;;6.72;3.38;;;22.90;62.00;;;;;;5069659;28;20081;-75
2021/08/10 10:06:58;;;;;;;4.05;3.05;;;23.00;62.00;;;;;;5069300;28;20396;-75
2021/08/10 10:09:26;;;;;;;10.20;3.78;;;23.20;61.20;;;;;;5071456;28;20035;-75
2021/08/10 10:11:54;;;;;;;11.77;3.65;;;23.40;61.10;;;;;;5072256;28;20111;-75
2021/08/10 10:14:21;;;;;;;5.03;3.47;;;23.70;60.70;;;;;;5069901;28;20081;-75
2021/08/10 10:16:49;;;;;;;4.82;3.58;;;23.80;60.20;;;;;;5078721;28;20024;-75
2021/08/10 10:19:17;;;;;;;8.50;2.92;;;23.70;58.60;;;;;;5067730;22;20584;-73
2021/08/10 10:21:55;;;;;;;3.58;2.28;;;23.70;59.20;;;;;;5051973;28;20100;-74
2021/08/10 10:24:22;;;;;;;5.28;2.63;;;23.70;58.30;;;;;;5050023;28;20052;-73
2021/08/10 10:27:01;;;;;;;5.03;2.63;;;23.70;59.20;;;;;;5051513;28;20075;-72
2021/08/10 10:29:27;;;;;;;3.42;2.10;;;23.80;59.60;;;;;;5051047;28;20036;-72
2021/08/10 10:31:53;;;;;;;4.25;2.55;;;23.90;59.50;;;;;;5051525;28;20025;-75
2021/08/10 10:34:19;;;;;;;5.70;2.75;;;24.20;58.50;;;;;;5049242;28;20457;-75
2021/08/10 10:36:47;;;;;;;5.80;2.50;;;24.40;58.60;;;;;;5051094;28;20017;-70
2021/08/10 10:39:19;;;;;;;5.20;2.10;;;24.60;57.80;;;;;;5050710;28;20025;-70
2021/08/10 10:41:45;;;;;;;4.15;3.15;;;24.70;58.00;;;;;;5058300;28;20435;-70
2021/08/10 10:44:10;;;;;;;7.25;2.78;;;24.80;56.30;;;;;;5049955;28;20093;-70
2021/08/10 10:46:39;;;;;;;4.90;2.78;;;24.80;56.50;;;;;;5050720;28;20029;-70
2021/08/10 10:49:06;;;;;;;6.90;3.42;;;24.70;57.10;;;;;;5050079;28;20039;-70
2021/08/10 10:51:39;;;;;;;6.50;2.70;;;24.80;57.20;;;;;;5049392;28;20033;-70
2021/08/10 10:54:23;;;;;;;5.63;2.85;;;24.70;57.20;;;;;;5049826;28;20037;-70
2021/08/10 10:56:50;;;;;;;4.70;2.80;;;24.80;56.90;;;;;;5049472;28;20032;-70
2021/08/10 10:59:21;;;;;;;6.63;2.50;;;24.90;56.20;;;;;;5051174;28;20044;-70
2021/08/10 11:01:47;;;;;;;3.42;2.70;;;24.90;55.70;;;;;;5050034;28;20017;-70
2021/08/10 11:04:13;;;;;;;4.82;2.65;;;24.90;56.50;;;;;;5048731;28;20025;-70
2021/08/10 11:06:41;;;;;;;5.70;2.88;;;24.80;56.10;;;;;;5048685;28;20116;-70
2021/08/10 11:09:06;;;;;;;8.98;4.28;;;24.80;56.10;;;;;;5050684;28;20025;-70
2021/08/10 11:11:49;;;;;;;6.97;4.15;;;24.90;56.70;;;;;;5049624;28;20032;-70
2021/08/10 11:14:36;;;;;;;6.18;3.38;;;24.90;56.40;;;;;;5049235;28;20029;-70
2021/08/10 11:17:08;;;;;;;5.00;3.25;;;24.90;56.50;;;;;;5049263;28;20438;-70
2021/08/10 11:19:40;;;;;;;4.47;2.75;;;24.90;56.10;;;;;;5048903;28;20049;-69
2021/08/10 11:22:14;;;;;;;6.97;3.95;;;24.80;55.60;;;;;;5050256;28;20059;-70
2021/08/10 11:24:43;;;;;;;3.58;2.85;;;24.50;55.40;;;;;;5049677;28;20132;-70
2021/08/10 11:27:31;;;;;;;5.65;3.50;;;24.50;55.40;;;;;;5049604;28;20025;-70
2021/08/10 11:29:57;;;;;;;4.30;2.75;;;24.70;55.70;;;;;;5050061;28;20024;-69
2021/08/10 11:32:44;;;;;;;4.05;2.75;;;24.90;55.60;;;;;;5050406;28;20127;-69
2021/08/10 11:35:35;;;;;;;4.47;3.40;;;25.10;53.40;;;;;;5047764;28;20025;-69
2021/08/10 11:38:14;;;;;;;3.60;2.50;;;25.20;54.20;;;;;;5049820;28;20408;-69
2021/08/10 11:40:55;;;;;;;7.30;3.25;;;25.30;52.60;;;;;;5050314;28;20025;-73
2021/08/10 11:43:42;;;;;;;4.30;3.08;;;25.40;51.90;;;;;;5049334;28;20040;-74
2021/08/10 11:46:16;;;;;;;9.65;3.55;;;25.30;52.50;;;;;;5039443;28;20495;-74
2021/08/10 11:48:49;;;;;;;4.43;3.03;;;25.20;52.70;;;;;;5050437;28;20502;-73
2021/08/10 11:51:42;;;;;;;9.00;3.15;;;25.10;52.40;;;;;;5050115;28;20029;-73
2021/08/10 11:54:13;;;;;;;4.45;3.10;;;25.00;52.40;;;;;;5043025;28;20049;-76
2021/08/10 11:56:41;;;;;;;6.13;2.60;;;24.90;52.90;;;;;;5048815;28;20139;-76
2021/08/10 11:59:19;;;;;;;4.72;3.25;;;24.70;53.10;;;;;;5049231;28;20112;-76
2021/08/10 12:01:45;;;;;;;3.50;2.90;;;24.60;53.30;;;;;;5049687;28;20048;-75
2021/08/10 12:04:13;;;;;;;3.25;2.72;;;24.50;54.00;;;;;;5048285;28;20028;-76
2021/08/10 12:06:40;;;;;;;4.75;2.90;;;24.40;53.90;;;;;;5049964;28;20449;-75
2021/08/10 12:09:08;;;;;;;5.13;3.58;;;24.40;54.00;;;;;;5049445;28;20039;-76
2021/08/10 12:11:34;;;;;;;6.95;3.13;;;24.30;54.30;;;;;;5049765;28;20052;-76
2021/08/10 12:14:13;;;;;;;3.53;2.90;;;24.30;54.50;;;;;;5046297;28;20506;-75
2021/08/10 12:16:57;;;;;;;5.10;3.05;;;24.40;54.40;;;;;;5049194;28;20131;-76
2021/08/10 12:19:41;;;;;;;8.20;2.80;;;24.50;53.90;;;;;;5049556;28;20037;-76
2021/08/10 12:22:17;;;;;;;4.65;2.83;;;24.50;54.00;;;;;;5049539;28;20021;-74
2021/08/10 12:24:42;;;;;;;3.53;2.72;;;24.50;53.30;;;;;;5047578;28;20055;-74
2021/08/10 12:27:09;;;;;;;3.90;2.97;;;24.40;53.70;;;;;;5048169;28;20477;-74
2021/08/10 12:29:38;;;;;;;6.80;3.10;;;24.40;53.70;;;;;;5049905;28;20025;-73
2021/08/10 12:32:05;;;;;;;7.13;3.63;;;24.50;53.40;;;;;;5049243;28;20047;-73
2021/08/10 12:34:36;;;;;;;7.82;4.05;;;24.60;53.20;;;;;;5047789;28;20633;-73
2021/08/10 12:37:02;;;;;;;5.82;2.53;;;24.60;53.00;;;;;;5049197;28;20510;-73
2021/08/10 12:39:28;;;;;;;3.20;2.25;;;24.50;53.00;;;;;;5049053;28;20029;-73
2021/08/10 12:41:58;;;;;;;4.38;2.55;;;24.50;53.70;;;;;;5049423;28;20031;-73
2021/08/10 12:44:26;;;;;;;3.33;2.83;;;24.80;53.40;;;;;;5047217;28;20483;-73
2021/08/10 12:46:56;;;;;;;3.28;2.05;;;25.00;52.60;;;;;;5048787;28;20033;-73
2021/08/10 12:49:31;;;;;;;3.78;2.80;;;25.10;51.90;;;;;;5048783;28;20080;-73
2021/08/10 12:52:08;;;;;;;3.10;2.40;;;25.10;51.70;;;;;;5049608;28;20017;-70